Portada
METAR-TAF:

METAR-TAF

Aeroports :

Hakodate, Japó

latitud: 41-46N, longitud: 140-49E, altitud: 33 m

Observació

L'informe es va fer fa 36 minuts, a les 01:00 UTC
Vent 5 kt del Sud, variant entre Est/Sud-Est i Sud/Sud-Oest
Temperatura 15°C
Humitat 63%
Pressió 1015 hPa
Visibilitat 10 km o més
sense núvols per sota de 1500 mi sense presència de cumulonimbus.

METAR: RJCH 170100Z 17005KT 110V200 CAVOK 15/08 Q1015

Hora: 10:36 (01:36 UTC)

Pronòstic

L'informe es va fer fa 2 hores i 31 minuts, a les 23:05 UTC
Pronòstic vàlid del 17 a les 00 UTC al 18 a les 06 UTC
Vent 10 kt del Sud/Sud-Est
Visibilitat 10 km o més
Escasses núvols a una alçada de 3000 ft
Evolucionant progressivament
l' 17 a les 10 UTC al 17 a les 12 UTC
Vent 4 kt del Nord/Nord-Est
Evolucionant progressivament
l' 17 a les 21 UTC al 18 a les 00 UTC
Vent 13 kt del Sud/Sud-Oest

TAF: RJCH 162305Z 1700/1806 15010KT 9999 FEW030 BECMG 1710/1712 02004KT BECMG 1721/1800 21013KT

Observacions i pronòstics meteorològics de més de 4000 aeroports (METAR i TAF).

Les estacions disponibles són els punts grocs i vermells al mapa.

Posi el ratolí al punt desitjat per veure el nom de l'estació.

Feu clic per veure les observacions i els pronòstics meteorològics.

Per canviar el mapa: feu clic els botons verds amb una creu de color negre per apropar; al botó verd amb un guió per allunyar la imatge; o en les fletxes verdes per a mapes adjacents.


METAR-TAF: